MOL Gratitude — VRJU7 — position and weather

sailwx.info

Track history (hours):
 
Tides and Currents Weather Stations Pressure Air Temp Water Temp Dewpoint Dewpoint Depression Visibility Wind Speed Wind Dir Waves Ship Positions

MOL Gratitude

Last reported at 2018-Apr-25 02:29 UTC. Time now 2018-Apr-25 02:29 UTC.
Position N 19°13' W 096°08'.

Length 275 m; draft 11.3 m.

Type: Ship (hazmat cat A). MMSI: 477462400.

Date/timePositionNaut miles runAvg speedWind from/ knotsBaromVisibWave heightAir tempDewpointWater temp
2018-Apr-25 02:29N 19°13' W 096°08'0 0.0
2018-Apr-25 01:56N 19°13' W 096°08'0 0.0
2018-Apr-25 01:02N 19°13' W 096°08'0 0.0
2018-Apr-25 00:35N 19°13' W 096°08'0 0.0
2018-Apr-25 00:23N 19°13' W 096°08'0 0.0
2018-Apr-24 23:56N 19°13' W 096°08'0 0.0
2018-Apr-24 23:02N 19°13' W 096°08'0 0.0
2018-Apr-24 22:14N 19°13' W 096°08'0 0.0
2018-Apr-24 20:21N 19°13' W 096°08'1 1.8
2018-Apr-24 20:00N 19°12' W 096°08'6 7.6
2018-Apr-24 19:08N 19°11' W 096°01'2 0.4
2018-Apr-24 15:08N 19°09' W 096°00'0 0.0
2018-Apr-24 14:50N 19°09' W 096°00'0 0.0
2018-Apr-24 14:26N 19°09' W 096°00'0 0.0
2018-Apr-24 13:56N 19°09' W 096°00'0 0.0
2018-Apr-24 08:56N 19°09' W 096°00'0 0.0
2018-Apr-24 07:44N 19°09' W 096°00'0 0.0
2018-Apr-24 07:20N 19°09' W 096°00'0 0.0
2018-Apr-24 06:56N 19°09' W 096°00'0 0.0
2018-Apr-24 06:26N 19°09' W 096°00'0 0.0
2018-Apr-24 05:56N 19°09' W 096°00'0 0.0
2018-Apr-24 05:26N 19°09' W 096°00'0 0.0
2018-Apr-24 04:50N 19°09' W 096°00'0 0.0
2018-Apr-24 04:08N 19°09' W 096°00'0 0.0
2018-Apr-24 02:14N 19°09' W 096°00'0 0.0
2018-Apr-24 01:20N 19°09' W 096°00'0 0.0
2018-Apr-24 00:20N 19°09' W 096°00'0 0.0
2018-Apr-23 22:45N 19°09' W 096°00'1 2.8
2018-Apr-23 22:20N 19°10' W 095°60'513.1
2018-Apr-23 22:00N 19°13' W 095°56'816.2
2018-Apr-23 21:29N 19°15' W 095°48'32816.4
2018-Apr-23 01:31N 22°29' W 091°04'016.8
2018-Apr-23 01:30N 22°29' W 091°04'5916.5
2018-Apr-22 21:54N 22°43' W 090°01'59415.3
2018-Apr-21 07:02N 25°21' W 079°35'115.7
2018-Apr-21 06:58N 25°22' W 079°35'915.6
2018-Apr-21 06:21N 25°31' W 079°32'515.2
2018-Apr-21 06:00N 25°37' W 079°31'715.1
2018-Apr-21 05:30N 25°44' W 079°30'714.9
2018-Apr-21 05:00N 25°51' W 079°28'1215.1
2018-Apr-21 04:13N 26°03' W 079°25'315.4
2018-Apr-21 04:00N 26°06' W 079°25'813.9
2018-Apr-21 03:25N 26°13' W 079°19'  
Track history (hours):
 
Tides and Currents Weather Stations Pressure Air Temp Water Temp Dewpoint Dewpoint Depression Visibility Wind Speed Wind Dir Waves Ship Positions

MOL Gratitude

Last reported at 2018-Apr-25 02:29 UTC. Time now 2018-Apr-25 02:29 UTC.
Position N 19°13' W 096°08'.

Length 275 m; draft 11.3 m.

Type: Ship (hazmat cat A). MMSI: 477462400.

Date/timePositionNaut miles runAvg speedWind from/ knotsBaromVisibWave heightAir tempDewpointWater temp
2018-Apr-25 02:29N 19°13' W 096°08'0 0.0
2018-Apr-25 01:56N 19°13' W 096°08'0 0.0
2018-Apr-25 01:02N 19°13' W 096°08'0 0.0
2018-Apr-25 00:35N 19°13' W 096°08'0 0.0
2018-Apr-25 00:23N 19°13' W 096°08'0 0.0
2018-Apr-24 23:56N 19°13' W 096°08'0 0.0
2018-Apr-24 23:02N 19°13' W 096°08'0 0.0
2018-Apr-24 22:14N 19°13' W 096°08'0 0.0
2018-Apr-24 20:21N 19°13' W 096°08'1 1.8
2018-Apr-24 20:00N 19°12' W 096°08'6 7.6
2018-Apr-24 19:08N 19°11' W 096°01'2 0.4
2018-Apr-24 15:08N 19°09' W 096°00'0 0.0
2018-Apr-24 14:50N 19°09' W 096°00'0 0.0
2018-Apr-24 14:26N 19°09' W 096°00'0 0.0
2018-Apr-24 13:56N 19°09' W 096°00'0 0.0
2018-Apr-24 08:56N 19°09' W 096°00'0 0.0
2018-Apr-24 07:44N 19°09' W 096°00'0 0.0
2018-Apr-24 07:20N 19°09' W 096°00'0 0.0
2018-Apr-24 06:56N 19°09' W 096°00'0 0.0
2018-Apr-24 06:26N 19°09' W 096°00'0 0.0
2018-Apr-24 05:56N 19°09' W 096°00'0 0.0
2018-Apr-24 05:26N 19°09' W 096°00'0 0.0
2018-Apr-24 04:50N 19°09' W 096°00'0 0.0
2018-Apr-24 04:08N 19°09' W 096°00'0 0.0
2018-Apr-24 02:14N 19°09' W 096°00'0 0.0
2018-Apr-24 01:20N 19°09' W 096°00'0 0.0
2018-Apr-24 00:20N 19°09' W 096°00'0 0.0
2018-Apr-23 22:45N 19°09' W 096°00'1 2.8
2018-Apr-23 22:20N 19°10' W 095°60'513.1
2018-Apr-23 22:00N 19°13' W 095°56'816.2
2018-Apr-23 21:29N 19°15' W 095°48'32816.4
2018-Apr-23 01:31N 22°29' W 091°04'016.8
2018-Apr-23 01:30N 22°29' W 091°04'5916.5
2018-Apr-22 21:54N 22°43' W 090°01'59415.3
2018-Apr-21 07:02N 25°21' W 079°35'115.7
2018-Apr-21 06:58N 25°22' W 079°35'915.6
2018-Apr-21 06:21N 25°31' W 079°32'515.2
2018-Apr-21 06:00N 25°37' W 079°31'715.1
2018-Apr-21 05:30N 25°44' W 079°30'714.9
2018-Apr-21 05:00N 25°51' W 079°28'1215.1
2018-Apr-21 04:13N 26°03' W 079°25'315.4
2018-Apr-21 04:00N 26°06' W 079°25'813.9
2018-Apr-21 03:25N 26°13' W 079°19'  

Dump ship's entire track history